createdAt,value
2022-08-19T00:03:38.827Z,28.19
2022-08-19T00:10:06.206Z,28.15
2022-08-19T00:16:37.251Z,28.18
2022-08-19T00:23:04.220Z,28.17
2022-08-19T00:29:27.281Z,28.15
2022-08-19T00:35:53.910Z,28.12
2022-08-19T00:42:28.244Z,28.13
2022-08-19T00:49:09.674Z,28.1
2022-08-19T00:55:57.054Z,28.11
2022-08-19T01:02:28.331Z,28.07
2022-08-19T01:09:06.633Z,28.05
2022-08-19T01:15:42.645Z,28.05
2022-08-19T01:22:30.276Z,28.03
2022-08-19T01:29:18.237Z,28.03
2022-08-19T01:36:02.819Z,28.02
2022-08-19T01:42:45.382Z,28
2022-08-19T01:49:24.733Z,28
2022-08-19T01:55:59.151Z,27.97
2022-08-19T02:02:35.464Z,27.99
2022-08-19T02:09:11.146Z,27.95
2022-08-19T02:15:33.242Z,27.91
2022-08-19T02:22:01.491Z,27.96
2022-08-19T02:28:26.205Z,27.91
2022-08-19T02:35:01.367Z,27.91
2022-08-19T02:41:39.170Z,27.93
2022-08-19T02:48:21.391Z,27.92
2022-08-19T02:54:51.664Z,27.96
2022-08-19T03:01:19.358Z,27.91
2022-08-19T03:07:56.189Z,27.91
2022-08-19T03:14:24.137Z,27.92
2022-08-19T03:20:50.869Z,27.92
2022-08-19T03:27:22.244Z,27.93
2022-08-19T03:33:48.473Z,27.95
2022-08-19T03:40:21.211Z,27.92
2022-08-19T03:46:56.258Z,28.03
2022-08-19T03:53:31.298Z,28.01
2022-08-19T04:00:13.338Z,28.04
2022-08-19T04:06:47.332Z,27.99
2022-08-19T04:13:27.217Z,27.99
2022-08-19T04:19:57.875Z,27.95
2022-08-19T04:26:53.877Z,27.87
2022-08-19T04:33:28.430Z,27.89
2022-08-19T04:40:09.945Z,27.88
2022-08-19T04:46:38.209Z,27.84
2022-08-19T04:53:14.736Z,27.87
2022-08-19T04:59:50.201Z,27.85
2022-08-19T05:06:18.931Z,27.85
2022-08-19T05:12:49.198Z,27.86
2022-08-19T05:19:18.746Z,28
2022-08-19T05:25:48.358Z,27.88
2022-08-19T05:32:19.794Z,28.06
2022-08-19T05:38:47.810Z,27.93
2022-08-19T05:45:20.629Z,28.04
2022-08-19T05:51:55.388Z,28.06
2022-08-19T05:58:24.500Z,27.95
2022-08-19T06:04:56.151Z,27.95
2022-08-19T06:11:34.470Z,27.95
2022-08-19T06:18:10.279Z,27.95
2022-08-19T06:24:45.350Z,27.88
2022-08-19T06:31:07.526Z,27.91
2022-08-19T06:37:35.390Z,27.88
2022-08-19T06:44:17.445Z,27.89
2022-08-19T06:50:58.428Z,27.91
2022-08-19T06:57:37.853Z,27.93
2022-08-19T07:03:59.539Z,27.87
2022-08-19T07:10:27.396Z,27.85
2022-08-19T07:17:01.455Z,27.89
2022-08-19T07:23:33.424Z,27.9
2022-08-19T07:30:11.791Z,27.94
2022-08-19T07:36:55.694Z,27.94
2022-08-19T07:43:24.616Z,27.93
2022-08-19T07:50:11.317Z,28.08
2022-08-19T07:56:53.506Z,28.11
2022-08-19T08:03:27.637Z,28.08
2022-08-19T08:10:06.779Z,28.08
2022-08-19T08:16:54.457Z,28.09
2022-08-19T08:23:25.526Z,28.04
2022-08-19T08:29:53.756Z,28.03
2022-08-19T08:36:21.506Z,28
2022-08-19T08:43:10.650Z,28.03
2022-08-19T08:50:32.542Z,28.05
2022-08-19T08:57:23.449Z,28.06
2022-08-19T09:04:07.442Z,28.19
2022-08-19T09:11:15.374Z,28.19
2022-08-19T09:18:19.182Z,28.2
2022-08-19T09:24:55.703Z,28.12
2022-08-19T09:31:30.379Z,28.29
2022-08-19T09:38:05.469Z,28.18
2022-08-19T09:44:40.729Z,28.22
2022-08-19T09:51:12.835Z,28.14
2022-08-19T09:57:43.054Z,28.1
2022-08-19T10:04:14.825Z,28.02
2022-08-19T10:11:27.628Z,28.05
2022-08-19T10:17:55.524Z,28.15
2022-08-19T10:24:37.570Z,28.09
2022-08-19T10:31:13.454Z,28.03
2022-08-19T10:37:57.183Z,28.07
2022-08-19T10:44:39.118Z,28.17
2022-08-19T10:51:22.694Z,28.11
2022-08-19T10:58:03.850Z,28.09
2022-08-19T11:04:42.869Z,28.1
2022-08-19T11:11:21.576Z,28.13
2022-08-19T11:17:50.894Z,28.09
2022-08-19T11:24:26.972Z,28.17
2022-08-19T11:31:03.512Z,28.14
2022-08-19T11:37:45.603Z,28.11
2022-08-19T11:44:16.336Z,28.09
2022-08-19T11:50:45.812Z,28.11
2022-08-19T11:57:15.939Z,28.32
2022-08-19T12:03:51.201Z,28.23
2022-08-19T12:10:24.630Z,28.18
2022-08-19T12:16:55.555Z,28.2
2022-08-19T12:23:27.117Z,28.23
2022-08-19T12:29:59.958Z,28.34
2022-08-19T12:36:28.592Z,28.32
2022-08-19T12:42:55.796Z,28.3
2022-08-19T12:49:34.374Z,28.27
2022-08-19T12:56:00.762Z,28.36
2022-08-19T13:02:37.183Z,28.3
2022-08-19T13:09:16.753Z,28.28
2022-08-19T13:15:56.599Z,28.28
2022-08-19T13:22:34.527Z,28.47
2022-08-19T13:29:11.612Z,28.72
2022-08-19T13:35:42.999Z,28.63
2022-08-19T13:42:21.727Z,28.65
2022-08-19T13:48:49.447Z,28.65
2022-08-19T13:55:24.583Z,28.65
2022-08-19T14:02:03.717Z,28.74
2022-08-19T14:08:35.586Z,28.98
2022-08-19T14:15:07.547Z,28.89
2022-08-19T14:21:41.943Z,29
2022-08-19T14:28:21.685Z,28.93
2022-08-19T14:34:56.475Z,29.11
2022-08-19T14:41:23.552Z,29.3
2022-08-19T14:47:55.752Z,29.44
2022-08-19T14:54:31.797Z,29.15
2022-08-19T15:01:00.031Z,29.14
2022-08-19T15:07:34.568Z,29.3
2022-08-19T15:13:59.884Z,29.28
2022-08-19T15:20:33.538Z,29.5
2022-08-19T15:27:04.688Z,29.38
2022-08-19T15:33:38.934Z,29.33
2022-08-19T15:40:08.829Z,29.52
2022-08-19T15:46:40.705Z,29.18
2022-08-19T15:53:08.692Z,28.89
2022-08-19T15:59:35.101Z,28.74
2022-08-19T16:06:20.884Z,28.61
2022-08-19T16:12:45.912Z,28.53
2022-08-19T16:19:15.593Z,28.39
2022-08-19T16:25:49.729Z,28.28
2022-08-19T16:32:22.575Z,28.18
2022-08-19T16:38:51.287Z,28.15
2022-08-19T16:45:24.494Z,28.16
2022-08-19T16:51:50.115Z,28.1
2022-08-19T16:58:16.753Z,28.08
2022-08-19T17:04:55.793Z,28.05
2022-08-19T17:11:31.631Z,28.02
2022-08-19T17:18:00.478Z,28.05
2022-08-19T17:24:56.078Z,27.94
2022-08-19T17:31:31.240Z,27.89
2022-08-19T17:37:59.699Z,27.83
2022-08-19T17:44:28.753Z,27.77
2022-08-19T17:50:54.219Z,27.73
2022-08-19T17:57:25.801Z,27.74
2022-08-19T18:04:04.216Z,27.75
2022-08-19T18:10:35.717Z,27.73
2022-08-19T18:17:14.638Z,27.82
2022-08-19T18:23:48.875Z,27.99
2022-08-19T18:30:20.703Z,28.12
2022-08-19T18:36:56.068Z,28.23
2022-08-19T18:43:32.157Z,28.32
2022-08-19T18:50:03.743Z,28.38
2022-08-19T18:56:34.720Z,28.33
2022-08-19T19:03:15.460Z,28.43
2022-08-19T19:09:52.969Z,28.4
2022-08-19T19:16:30.829Z,28.44
2022-08-19T19:23:05.820Z,28.43
2022-08-19T19:29:31.760Z,28.43
2022-08-19T19:36:08.136Z,28.46
2022-08-19T19:42:54.008Z,28.44
2022-08-19T19:49:21.956Z,28.45
2022-08-19T19:55:58.992Z,28.46
2022-08-19T20:02:25.706Z,28.44
2022-08-19T20:08:50.236Z,28.42
2022-08-19T20:15:18.843Z,28.44
2022-08-19T20:21:43.807Z,28.5
2022-08-19T20:28:27.251Z,28.54
2022-08-19T20:34:54.124Z,28.53
2022-08-19T20:41:18.739Z,28.53
2022-08-19T20:47:54.887Z,28.53
2022-08-19T20:54:25.897Z,28.52
2022-08-19T21:01:02.973Z,28.5
2022-08-19T21:07:41.273Z,28.54
2022-08-19T21:14:14.066Z,28.58
2022-08-19T21:20:47.833Z,28.54
2022-08-19T21:27:19.919Z,28.59
2022-08-19T21:33:43.807Z,28.67
2022-08-19T21:40:08.096Z,28.76
2022-08-19T21:46:58.409Z,28.68
2022-08-19T21:53:23.922Z,28.68
2022-08-19T21:59:51.227Z,28.67
2022-08-19T22:06:17.899Z,28.79
2022-08-19T22:12:46.063Z,28.37
2022-08-19T22:19:18.275Z,28.09
2022-08-19T22:25:47.771Z,28.09
2022-08-19T22:32:17.822Z,27.97
2022-08-19T22:39:09.871Z,28
2022-08-19T22:45:39.868Z,27.95
2022-08-19T22:52:06.323Z,27.77
2022-08-19T22:58:44.083Z,27.82
2022-08-19T23:05:12.838Z,27.68
2022-08-19T23:11:44.040Z,27.77
2022-08-19T23:18:19.797Z,27.63
2022-08-19T23:24:48.308Z,27.56
2022-08-19T23:31:28.936Z,27.49
2022-08-19T23:38:01.950Z,27.45
2022-08-19T23:44:51.056Z,27.45
2022-08-19T23:51:26.243Z,27.38
2022-08-19T23:57:52.952Z,27.31
